sensor_id;sensor_type;location;lat;lon;timestamp;P1;durP1;ratioP1;P2;durP2;ratioP2
32786;SDS011;19139;49.372;8.580;2023-03-01T00:01:10;5.43;;;3.50;;
32786;SDS011;19139;49.372;8.580;2023-03-01T00:03:45;4.03;;;3.53;;
32786;SDS011;19139;49.372;8.580;2023-03-01T00:06:12;5.73;;;3.70;;
32786;SDS011;19139;49.372;8.580;2023-03-01T00:08:39;5.43;;;3.50;;
32786;SDS011;19139;49.372;8.580;2023-03-01T00:11:13;4.47;;;3.23;;
32786;SDS011;19139;49.372;8.580;2023-03-01T00:13:47;5.77;;;3.73;;
32786;SDS011;19139;49.372;8.580;2023-03-01T00:16:22;4.80;;;3.50;;
32786;SDS011;19139;49.372;8.580;2023-03-01T00:19:11;4.83;;;3.67;;
32786;SDS011;19139;49.372;8.580;2023-03-01T00:21:40;6.90;;;3.97;;
32786;SDS011;19139;49.372;8.580;2023-03-01T00:24:07;5.00;;;3.50;;
32786;SDS011;19139;49.372;8.580;2023-03-01T00:26:34;3.87;;;3.37;;
32786;SDS011;19139;49.372;8.580;2023-03-01T00:29:00;7.07;;;3.23;;
32786;SDS011;19139;49.372;8.580;2023-03-01T00:31:28;5.40;;;3.57;;
32786;SDS011;19139;49.372;8.580;2023-03-01T00:33:57;6.07;;;4.20;;
32786;SDS011;19139;49.372;8.580;2023-03-01T00:36:26;5.57;;;3.90;;
32786;SDS011;19139;49.372;8.580;2023-03-01T00:38:59;5.87;;;4.30;;
32786;SDS011;19139;49.372;8.580;2023-03-01T00:41:25;6.43;;;4.03;;
32786;SDS011;19139;49.372;8.580;2023-03-01T00:43:57;4.73;;;3.00;;
32786;SDS011;19139;49.372;8.580;2023-03-01T00:46:29;6.60;;;3.70;;
32786;SDS011;19139;49.372;8.580;2023-03-01T00:48:57;5.03;;;3.47;;
32786;SDS011;19139;49.372;8.580;2023-03-01T00:51:28;5.80;;;3.77;;
32786;SDS011;19139;49.372;8.580;2023-03-01T00:53:56;6.33;;;3.77;;
32786;SDS011;19139;49.372;8.580;2023-03-01T00:56:29;5.40;;;3.47;;
32786;SDS011;19139;49.372;8.580;2023-03-01T00:58:57;4.67;;;3.80;;
32786;SDS011;19139;49.372;8.580;2023-03-01T01:01:29;4.03;;;3.30;;
32786;SDS011;19139;49.372;8.580;2023-03-01T01:03:59;4.43;;;2.93;;
32786;SDS011;19139;49.372;8.580;2023-03-01T01:06:34;5.90;;;3.20;;
32786;SDS011;19139;49.372;8.580;2023-03-01T01:09:05;8.17;;;3.90;;
32786;SDS011;19139;49.372;8.580;2023-03-01T01:11:33;5.73;;;3.27;;
32786;SDS011;19139;49.372;8.580;2023-03-01T01:14:01;4.33;;;3.60;;
32786;SDS011;19139;49.372;8.580;2023-03-01T01:16:29;4.17;;;3.63;;
32786;SDS011;19139;49.372;8.580;2023-03-01T01:18:56;6.93;;;3.30;;
32786;SDS011;19139;49.372;8.580;2023-03-01T01:21:28;4.50;;;2.80;;
32786;SDS011;19139;49.372;8.580;2023-03-01T01:23:55;4.13;;;2.93;;
32786;SDS011;19139;49.372;8.580;2023-03-01T01:26:28;3.90;;;3.37;;
32786;SDS011;19139;49.372;8.580;2023-03-01T01:28:57;5.30;;;3.27;;
32786;SDS011;19139;49.372;8.580;2023-03-01T01:31:25;5.87;;;3.33;;
32786;SDS011;19139;49.372;8.580;2023-03-01T01:33:58;3.87;;;3.10;;
32786;SDS011;19139;49.372;8.580;2023-03-01T01:36:26;4.87;;;3.60;;
32786;SDS011;19139;49.372;8.580;2023-03-01T01:38:58;4.50;;;3.20;;
32786;SDS011;19139;49.372;8.580;2023-03-01T01:41:26;4.03;;;3.10;;
32786;SDS011;19139;49.372;8.580;2023-03-01T01:44:09;5.37;;;3.73;;
32786;SDS011;19139;49.372;8.580;2023-03-01T01:46:52;4.67;;;3.30;;
32786;SDS011;19139;49.372;8.580;2023-03-01T01:49:35;5.00;;;2.90;;
32786;SDS011;19139;49.372;8.580;2023-03-01T01:52:26;5.23;;;3.47;;
32786;SDS011;19139;49.372;8.580;2023-03-01T01:54:57;3.73;;;3.03;;
32786;SDS011;19139;49.372;8.580;2023-03-01T01:57:30;3.60;;;2.87;;
32786;SDS011;19139;49.372;8.580;2023-03-01T02:00:06;3.40;;;3.10;;
32786;SDS011;19139;49.372;8.580;2023-03-01T02:02:36;3.70;;;3.00;;
32786;SDS011;19139;49.372;8.580;2023-03-01T02:05:06;3.53;;;3.23;;
32786;SDS011;19139;49.372;8.580;2023-03-01T02:07:45;5.17;;;3.40;;
32786;SDS011;19139;49.372;8.580;2023-03-01T02:10:18;4.37;;;3.13;;
32786;SDS011;19139;49.372;8.580;2023-03-01T02:12:46;5.80;;;3.30;;
32786;SDS011;19139;49.372;8.580;2023-03-01T02:15:18;4.10;;;3.00;;
32786;SDS011;19139;49.372;8.580;2023-03-01T02:17:45;3.30;;;2.70;;
32786;SDS011;19139;49.372;8.580;2023-03-01T02:20:26;4.50;;;3.27;;
32786;SDS011;19139;49.372;8.580;2023-03-01T02:23:06;3.60;;;3.20;;
32786;SDS011;19139;49.372;8.580;2023-03-01T02:25:52;4.63;;;3.60;;
32786;SDS011;19139;49.372;8.580;2023-03-01T02:28:46;3.80;;;3.40;;
32786;SDS011;19139;49.372;8.580;2023-03-01T02:31:19;4.43;;;3.80;;
32786;SDS011;19139;49.372;8.580;2023-03-01T02:34:06;3.87;;;3.23;;
32786;SDS011;19139;49.372;8.580;2023-03-01T02:36:40;3.73;;;2.83;;
32786;SDS011;19139;49.372;8.580;2023-03-01T02:39:17;4.03;;;3.27;;
32786;SDS011;19139;49.372;8.580;2023-03-01T02:41:49;3.83;;;2.90;;
32786;SDS011;19139;49.372;8.580;2023-03-01T02:44:17;4.70;;;3.30;;
32786;SDS011;19139;49.372;8.580;2023-03-01T02:46:49;3.97;;;2.80;;
32786;SDS011;19139;49.372;8.580;2023-03-01T02:49:36;4.03;;;3.40;;
32786;SDS011;19139;49.372;8.580;2023-03-01T02:52:13;4.40;;;2.70;;
32786;SDS011;19139;49.372;8.580;2023-03-01T02:55:16;2.70;;;2.50;;
32786;SDS011;19139;49.372;8.580;2023-03-01T02:57:49;4.27;;;3.40;;
32786;SDS011;19139;49.372;8.580;2023-03-01T03:00:19;3.77;;;2.70;;
32786;SDS011;19139;49.372;8.580;2023-03-01T03:02:55;5.13;;;3.37;;
32786;SDS011;19139;49.372;8.580;2023-03-01T03:05:29;4.00;;;2.97;;
32786;SDS011;19139;49.372;8.580;2023-03-01T03:08:03;2.53;;;2.33;;
32786;SDS011;19139;49.372;8.580;2023-03-01T03:10:37;3.50;;;3.20;;
32786;SDS011;19139;49.372;8.580;2023-03-01T03:13:07;4.53;;;3.00;;
32786;SDS011;19139;49.372;8.580;2023-03-01T03:15:36;4.03;;;2.90;;
32786;SDS011;19139;49.372;8.580;2023-03-01T03:18:05;3.47;;;3.17;;
32786;SDS011;19139;49.372;8.580;2023-03-01T03:20:39;3.80;;;3.20;;
32786;SDS011;19139;49.372;8.580;2023-03-01T03:23:07;4.33;;;2.97;;
32786;SDS011;19139;49.372;8.580;2023-03-01T03:25:35;4.47;;;3.10;;
32786;SDS011;19139;49.372;8.580;2023-03-01T03:28:08;4.13;;;3.30;;
32786;SDS011;19139;49.372;8.580;2023-03-01T03:30:39;3.47;;;3.07;;
32786;SDS011;19139;49.372;8.580;2023-03-01T03:33:07;3.50;;;2.97;;
32786;SDS011;19139;49.372;8.580;2023-03-01T03:35:44;4.20;;;3.37;;
32786;SDS011;19139;49.372;8.580;2023-03-01T03:38:19;3.97;;;2.70;;
32786;SDS011;19139;49.372;8.580;2023-03-01T03:41:11;4.10;;;3.23;;
32786;SDS011;19139;49.372;8.580;2023-03-01T03:43:35;3.70;;;2.70;;
32786;SDS011;19139;49.372;8.580;2023-03-01T03:46:09;3.70;;;3.10;;
32786;SDS011;19139;49.372;8.580;2023-03-01T03:48:38;3.60;;;2.93;;
32786;SDS011;19139;49.372;8.580;2023-03-01T03:51:06;4.43;;;3.27;;
32786;SDS011;19139;49.372;8.580;2023-03-01T03:53:36;4.83;;;3.17;;
32786;SDS011;19139;49.372;8.580;2023-03-01T03:56:08;3.10;;;2.40;;
32786;SDS011;19139;49.372;8.580;2023-03-01T03:58:35;4.93;;;3.17;;
32786;SDS011;19139;49.372;8.580;2023-03-01T04:01:07;4.40;;;3.40;;
32786;SDS011;19139;49.372;8.580;2023-03-01T04:03:38;3.43;;;2.87;;
32786;SDS011;19139;49.372;8.580;2023-03-01T04:06:05;3.83;;;2.90;;
32786;SDS011;19139;49.372;8.580;2023-03-01T04:08:36;3.70;;;2.50;;
32786;SDS011;19139;49.372;8.580;2023-03-01T04:11:08;3.57;;;3.10;;
32786;SDS011;19139;49.372;8.580;2023-03-01T04:13:58;3.10;;;2.80;;
32786;SDS011;19139;49.372;8.580;2023-03-01T04:16:26;3.60;;;2.60;;
32786;SDS011;19139;49.372;8.580;2023-03-01T04:18:57;3.47;;;3.03;;
32786;SDS011;19139;49.372;8.580;2023-03-01T04:21:25;3.47;;;3.13;;
32786;SDS011;19139;49.372;8.580;2023-03-01T04:23:57;3.93;;;2.93;;
32786;SDS011;19139;49.372;8.580;2023-03-01T04:26:28;3.60;;;3.20;;
32786;SDS011;19139;49.372;8.580;2023-03-01T04:28:56;3.20;;;2.90;;
32786;SDS011;19139;49.372;8.580;2023-03-01T04:31:27;3.10;;;2.80;;
32786;SDS011;19139;49.372;8.580;2023-03-01T04:33:59;3.20;;;2.90;;
32786;SDS011;19139;49.372;8.580;2023-03-01T04:36:28;2.97;;;2.67;;
32786;SDS011;19139;49.372;8.580;2023-03-01T04:38:56;3.40;;;2.80;;
32786;SDS011;19139;49.372;8.580;2023-03-01T04:41:28;5.50;;;3.47;;
32786;SDS011;19139;49.372;8.580;2023-03-01T04:43:54;3.40;;;2.87;;
32786;SDS011;19139;49.372;8.580;2023-03-01T04:46:26;3.70;;;3.17;;
32786;SDS011;19139;49.372;8.580;2023-03-01T04:48:57;3.13;;;2.73;;
32786;SDS011;19139;49.372;8.580;2023-03-01T04:51:29;3.60;;;2.67;;
32786;SDS011;19139;49.372;8.580;2023-03-01T04:53:55;3.60;;;2.90;;
32786;SDS011;19139;49.372;8.580;2023-03-01T04:56:27;3.37;;;2.90;;
32786;SDS011;19139;49.372;8.580;2023-03-01T04:58:58;3.57;;;2.90;;
32786;SDS011;19139;49.372;8.580;2023-03-01T05:01:26;3.97;;;3.20;;
32786;SDS011;19139;49.372;8.580;2023-03-01T05:03:57;3.77;;;3.00;;
32786;SDS011;19139;49.372;8.580;2023-03-01T05:06:33;4.37;;;2.50;;
32786;SDS011;19139;49.372;8.580;2023-03-01T05:09:05;3.53;;;2.67;;
32786;SDS011;19139;49.372;8.580;2023-03-01T05:11:37;3.80;;;2.93;;
32786;SDS011;19139;49.372;8.580;2023-03-01T05:14:09;4.13;;;3.10;;
32786;SDS011;19139;49.372;8.580;2023-03-01T05:16:36;2.77;;;2.57;;
32786;SDS011;19139;49.372;8.580;2023-03-01T05:19:07;3.73;;;2.70;;
32786;SDS011;19139;49.372;8.580;2023-03-01T05:21:46;4.23;;;3.47;;
32786;SDS011;19139;49.372;8.580;2023-03-01T05:24:33;3.37;;;3.07;;
32786;SDS011;19139;49.372;8.580;2023-03-01T05:27:05;3.63;;;3.33;;
32786;SDS011;19139;49.372;8.580;2023-03-01T05:29:32;3.30;;;3.00;;
32786;SDS011;19139;49.372;8.580;2023-03-01T05:32:05;3.40;;;3.03;;
32786;SDS011;19139;49.372;8.580;2023-03-01T05:34:37;3.73;;;3.33;;
32786;SDS011;19139;49.372;8.580;2023-03-01T05:37:09;3.50;;;3.20;;
32786;SDS011;19139;49.372;8.580;2023-03-01T05:39:36;3.70;;;3.10;;
32786;SDS011;19139;49.372;8.580;2023-03-01T05:42:10;3.20;;;2.90;;
32786;SDS011;19139;49.372;8.580;2023-03-01T05:44:42;3.67;;;3.10;;
32786;SDS011;19139;49.372;8.580;2023-03-01T05:47:14;3.53;;;3.07;;
32786;SDS011;19139;49.372;8.580;2023-03-01T05:49:45;3.23;;;2.90;;
32786;SDS011;19139;49.372;8.580;2023-03-01T05:52:17;3.60;;;3.13;;
32786;SDS011;19139;49.372;8.580;2023-03-01T05:54:48;2.97;;;2.67;;
32786;SDS011;19139;49.372;8.580;2023-03-01T05:57:15;3.87;;;2.63;;
32786;SDS011;19139;49.372;8.580;2023-03-01T05:59:47;3.47;;;3.17;;
32786;SDS011;19139;49.372;8.580;2023-03-01T06:02:18;3.40;;;2.60;;
32786;SDS011;19139;49.372;8.580;2023-03-01T06:04:50;4.33;;;3.40;;
32786;SDS011;19139;49.372;8.580;2023-03-01T06:07:22;3.93;;;2.83;;
32786;SDS011;19139;49.372;8.580;2023-03-01T06:09:53;4.07;;;2.87;;
32786;SDS011;19139;49.372;8.580;2023-03-01T06:12:25;3.10;;;2.80;;
32786;SDS011;19139;49.372;8.580;2023-03-01T06:14:56;3.23;;;2.93;;
32786;SDS011;19139;49.372;8.580;2023-03-01T06:17:31;3.67;;;2.90;;
32786;SDS011;19139;49.372;8.580;2023-03-01T06:20:16;2.80;;;2.60;;
32786;SDS011;19139;49.372;8.580;2023-03-01T06:22:49;3.27;;;2.93;;
32786;SDS011;19139;49.372;8.580;2023-03-01T06:25:22;3.47;;;2.90;;
32786;SDS011;19139;49.372;8.580;2023-03-01T06:27:54;3.20;;;2.73;;
32786;SDS011;19139;49.372;8.580;2023-03-01T06:30:26;3.43;;;3.00;;
32786;SDS011;19139;49.372;8.580;2023-03-01T06:32:57;4.20;;;3.20;;
32786;SDS011;19139;49.372;8.580;2023-03-01T06:35:32;3.63;;;3.00;;
32786;SDS011;19139;49.372;8.580;2023-03-01T06:37:59;3.00;;;2.67;;
32786;SDS011;19139;49.372;8.580;2023-03-01T06:40:32;3.23;;;2.73;;
32786;SDS011;19139;49.372;8.580;2023-03-01T06:43:06;3.13;;;2.83;;
32786;SDS011;19139;49.372;8.580;2023-03-01T06:45:38;4.57;;;2.90;;
32786;SDS011;19139;49.372;8.580;2023-03-01T06:48:05;3.50;;;3.20;;
32786;SDS011;19139;49.372;8.580;2023-03-01T06:50:38;4.23;;;3.20;;
32786;SDS011;19139;49.372;8.580;2023-03-01T06:53:04;9.53;;;8.53;;
32786;SDS011;19139;49.372;8.580;2023-03-01T06:55:31;14.27;;;11.87;;
32786;SDS011;19139;49.372;8.580;2023-03-01T06:57:59;15.67;;;14.03;;
32786;SDS011;19139;49.372;8.580;2023-03-01T07:00:26;15.87;;;13.77;;
32786;SDS011;19139;49.372;8.580;2023-03-01T07:02:53;15.27;;;13.17;;
32786;SDS011;19139;49.372;8.580;2023-03-01T07:05:20;13.07;;;11.60;;
32786;SDS011;19139;49.372;8.580;2023-03-01T07:07:47;11.70;;;10.50;;
32786;SDS011;19139;49.372;8.580;2023-03-01T07:10:13;12.77;;;10.63;;
32786;SDS011;19139;49.372;8.580;2023-03-01T07:12:40;10.03;;;8.63;;
32786;SDS011;19139;49.372;8.580;2023-03-01T07:15:08;10.93;;;8.10;;
32786;SDS011;19139;49.372;8.580;2023-03-01T07:17:40;11.07;;;8.40;;
32786;SDS011;19139;49.372;8.580;2023-03-01T07:20:11;9.33;;;8.13;;
32786;SDS011;19139;49.372;8.580;2023-03-01T07:22:43;10.77;;;7.67;;
32786;SDS011;19139;49.372;8.580;2023-03-01T07:25:15;9.47;;;7.00;;
32786;SDS011;19139;49.372;8.580;2023-03-01T07:27:41;9.10;;;7.93;;
32786;SDS011;19139;49.372;8.580;2023-03-01T07:30:13;9.27;;;7.53;;
32786;SDS011;19139;49.372;8.580;2023-03-01T07:32:44;9.20;;;6.57;;
32786;SDS011;19139;49.372;8.580;2023-03-01T07:35:11;9.10;;;6.57;;
32786;SDS011;19139;49.372;8.580;2023-03-01T07:37:43;7.40;;;6.20;;
32786;SDS011;19139;49.372;8.580;2023-03-01T07:40:15;7.23;;;5.30;;
32786;SDS011;19139;49.372;8.580;2023-03-01T07:42:41;6.40;;;5.80;;
32786;SDS011;19139;49.372;8.580;2023-03-01T07:45:13;7.80;;;5.63;;
32786;SDS011;19139;49.372;8.580;2023-03-01T07:47:44;6.90;;;6.20;;
32786;SDS011;19139;49.372;8.580;2023-03-01T07:50:11;6.57;;;5.67;;
32786;SDS011;19139;49.372;8.580;2023-03-01T07:52:45;6.07;;;5.20;;
32786;SDS011;19139;49.372;8.580;2023-03-01T07:55:12;6.40;;;5.80;;
32786;SDS011;19139;49.372;8.580;2023-03-01T07:57:44;6.77;;;5.70;;
32786;SDS011;19139;49.372;8.580;2023-03-01T08:00:11;6.37;;;5.73;;
32786;SDS011;19139;49.372;8.580;2023-03-01T08:02:43;7.73;;;5.70;;
32786;SDS011;19139;49.372;8.580;2023-03-01T08:05:14;6.73;;;5.73;;
32786;SDS011;19139;49.372;8.580;2023-03-01T08:07:41;6.10;;;5.20;;
32786;SDS011;19139;49.372;8.580;2023-03-01T08:10:08;6.23;;;5.43;;
32786;SDS011;19139;49.372;8.580;2023-03-01T08:12:35;6.40;;;5.13;;
32786;SDS011;19139;49.372;8.580;2023-03-01T08:15:03;6.53;;;5.33;;
32786;SDS011;19139;49.372;8.580;2023-03-01T08:17:30;6.63;;;5.50;;
32786;SDS011;19139;49.372;8.580;2023-03-01T08:19:56;6.13;;;4.90;;
32786;SDS011;19139;49.372;8.580;2023-03-01T08:22:23;8.03;;;5.37;;
32786;SDS011;19139;49.372;8.580;2023-03-01T08:24:49;8.50;;;5.23;;
32786;SDS011;19139;49.372;8.580;2023-03-01T08:27:17;5.70;;;4.83;;
32786;SDS011;19139;49.372;8.580;2023-03-01T08:29:44;6.67;;;5.00;;
32786;SDS011;19139;49.372;8.580;2023-03-01T08:32:10;10.17;;;5.27;;
32786;SDS011;19139;49.372;8.580;2023-03-01T08:34:37;9.03;;;4.93;;
32786;SDS011;19139;49.372;8.580;2023-03-01T08:37:05;8.73;;;4.63;;
32786;SDS011;19139;49.372;8.580;2023-03-01T08:39:32;6.70;;;4.67;;
32786;SDS011;19139;49.372;8.580;2023-03-01T08:41:58;7.10;;;5.23;;
32786;SDS011;19139;49.372;8.580;2023-03-01T08:44:30;8.60;;;5.50;;
32786;SDS011;19139;49.372;8.580;2023-03-01T08:46:56;8.83;;;5.40;;
32786;SDS011;19139;49.372;8.580;2023-03-01T08:49:24;6.90;;;4.90;;
32786;SDS011;19139;49.372;8.580;2023-03-01T08:51:50;8.90;;;5.00;;
32786;SDS011;19139;49.372;8.580;2023-03-01T08:54:18;7.23;;;4.50;;
32786;SDS011;19139;49.372;8.580;2023-03-01T08:56:46;7.63;;;5.23;;
32786;SDS011;19139;49.372;8.580;2023-03-01T08:59:13;13.67;;;9.77;;
32786;SDS011;19139;49.372;8.580;2023-03-01T09:01:41;15.70;;;12.83;;
32786;SDS011;19139;49.372;8.580;2023-03-01T09:04:10;16.40;;;14.63;;
32786;SDS011;19139;49.372;8.580;2023-03-01T09:06:37;18.20;;;16.07;;
32786;SDS011;19139;49.372;8.580;2023-03-01T09:09:04;17.40;;;15.10;;
32786;SDS011;19139;49.372;8.580;2023-03-01T09:11:32;13.37;;;11.90;;
32786;SDS011;19139;49.372;8.580;2023-03-01T09:13:59;12.20;;;10.43;;
32786;SDS011;19139;49.372;8.580;2023-03-01T09:16:30;13.53;;;10.80;;
32786;SDS011;19139;49.372;8.580;2023-03-01T09:19:02;12.83;;;10.27;;
32786;SDS011;19139;49.372;8.580;2023-03-01T09:21:29;12.07;;;9.83;;
32786;SDS011;19139;49.372;8.580;2023-03-01T09:24:06;11.90;;;9.43;;
32786;SDS011;19139;49.372;8.580;2023-03-01T09:26:45;11.17;;;8.47;;
32786;SDS011;19139;49.372;8.580;2023-03-01T09:29:17;9.80;;;8.53;;
32786;SDS011;19139;49.372;8.580;2023-03-01T09:31:44;10.63;;;8.23;;
32786;SDS011;19139;49.372;8.580;2023-03-01T09:34:10;10.63;;;7.60;;
32786;SDS011;19139;49.372;8.580;2023-03-01T09:36:42;9.23;;;7.20;;
32786;SDS011;19139;49.372;8.580;2023-03-01T09:39:08;9.80;;;7.13;;
32786;SDS011;19139;49.372;8.580;2023-03-01T09:44:48;8.73;;;7.37;;
32786;SDS011;19139;49.372;8.580;2023-03-01T09:47:24;8.40;;;7.00;;
32786;SDS011;19139;49.372;8.580;2023-03-01T09:50:04;8.87;;;7.10;;
32786;SDS011;19139;49.372;8.580;2023-03-01T09:52:48;7.87;;;7.00;;
32786;SDS011;19139;49.372;8.580;2023-03-01T10:00:42;10.27;;;6.63;;
32786;SDS011;19139;49.372;8.580;2023-03-01T10:06:23;7.70;;;6.10;;
32786;SDS011;19139;49.372;8.580;2023-03-01T10:09:10;8.03;;;6.07;;
32786;SDS011;19139;49.372;8.580;2023-03-01T10:11:48;12.37;;;7.20;;
32786;SDS011;19139;49.372;8.580;2023-03-01T10:14:34;8.23;;;6.13;;
32786;SDS011;19139;49.372;8.580;2023-03-01T10:17:19;6.63;;;5.93;;
32786;SDS011;19139;49.372;8.580;2023-03-01T10:20:14;8.73;;;6.10;;
32786;SDS011;19139;49.372;8.580;2023-03-01T10:22:44;8.27;;;6.43;;
32786;SDS011;19139;49.372;8.580;2023-03-01T10:25:23;10.20;;;6.07;;
32786;SDS011;19139;49.372;8.580;2023-03-01T10:28:29;10.87;;;6.30;;
32786;SDS011;19139;49.372;8.580;2023-03-01T10:31:26;7.83;;;6.27;;
32786;SDS011;19139;49.372;8.580;2023-03-01T10:36:56;7.40;;;5.90;;
32786;SDS011;19139;49.372;8.580;2023-03-01T10:39:26;7.97;;;5.97;;
32786;SDS011;19139;49.372;8.580;2023-03-01T10:42:00;7.90;;;5.53;;
32786;SDS011;19139;49.372;8.580;2023-03-01T10:44:37;9.57;;;6.00;;
32786;SDS011;19139;49.372;8.580;2023-03-01T10:47:05;6.50;;;5.37;;
32786;SDS011;19139;49.372;8.580;2023-03-01T10:49:37;8.27;;;5.60;;
32786;SDS011;19139;49.372;8.580;2023-03-01T10:52:20;7.73;;;5.17;;
32786;SDS011;19139;49.372;8.580;2023-03-01T10:54:56;6.03;;;5.23;;
32786;SDS011;19139;49.372;8.580;2023-03-01T10:57:43;8.13;;;5.60;;
32786;SDS011;19139;49.372;8.580;2023-03-01T11:02:47;8.17;;;5.07;;
32786;SDS011;19139;49.372;8.580;2023-03-01T11:05:34;10.93;;;9.13;;
32786;SDS011;19139;49.372;8.580;2023-03-01T11:08:06;11.97;;;10.23;;
32786;SDS011;19139;49.372;8.580;2023-03-01T11:10:37;11.77;;;10.57;;
32786;SDS011;19139;49.372;8.580;2023-03-01T11:13:17;13.33;;;10.17;;
32786;SDS011;19139;49.372;8.580;2023-03-01T11:15:58;15.73;;;11.50;;
32786;SDS011;19139;49.372;8.580;2023-03-01T11:18:30;10.27;;;8.03;;
32786;SDS011;19139;49.372;8.580;2023-03-01T11:21:12;10.37;;;7.70;;
32786;SDS011;19139;49.372;8.580;2023-03-01T11:23:39;8.63;;;7.50;;
32786;SDS011;19139;49.372;8.580;2023-03-01T11:26:09;11.43;;;7.33;;
32786;SDS011;19139;49.372;8.580;2023-03-01T11:28:38;13.87;;;8.10;;
32786;SDS011;19139;49.372;8.580;2023-03-01T11:31:08;10.90;;;7.33;;
32786;SDS011;19139;49.372;8.580;2023-03-01T11:33:43;9.10;;;7.47;;
32786;SDS011;19139;49.372;8.580;2023-03-01T11:39:02;7.37;;;6.20;;
32786;SDS011;19139;49.372;8.580;2023-03-01T11:41:39;8.77;;;6.80;;
32786;SDS011;19139;49.372;8.580;2023-03-01T11:44:14;6.20;;;5.60;;
32786;SDS011;19139;49.372;8.580;2023-03-01T11:54:50;6.97;;;5.77;;
32786;SDS011;19139;49.372;8.580;2023-03-01T12:00:22;8.17;;;7.27;;
32786;SDS011;19139;49.372;8.580;2023-03-01T12:05:59;7.30;;;6.30;;
32786;SDS011;19139;49.372;8.580;2023-03-01T12:11:38;7.83;;;5.50;;
32786;SDS011;19139;49.372;8.580;2023-03-01T12:17:15;7.43;;;5.60;;
32786;SDS011;19139;49.372;8.580;2023-03-01T12:19:54;7.13;;;5.50;;
32786;SDS011;19139;49.372;8.580;2023-03-01T12:22:35;6.90;;;6.10;;
32786;SDS011;19139;49.372;8.580;2023-03-01T12:25:34;7.00;;;5.10;;
32786;SDS011;19139;49.372;8.580;2023-03-01T12:28:27;6.87;;;5.80;;
32786;SDS011;19139;49.372;8.580;2023-03-01T12:40:18;6.67;;;5.40;;
32786;SDS011;19139;49.372;8.580;2023-03-01T12:48:53;6.43;;;4.93;;
32786;SDS011;19139;49.372;8.580;2023-03-01T12:51:35;8.27;;;4.93;;
32786;SDS011;19139;49.372;8.580;2023-03-01T12:54:13;6.27;;;5.13;;
32786;SDS011;19139;49.372;8.580;2023-03-01T12:56:50;6.60;;;4.93;;
32786;SDS011;19139;49.372;8.580;2023-03-01T12:59:37;7.23;;;5.23;;
32786;SDS011;19139;49.372;8.580;2023-03-01T13:05:01;8.53;;;5.00;;
32786;SDS011;19139;49.372;8.580;2023-03-01T13:10:30;6.30;;;5.13;;
32786;SDS011;19139;49.372;8.580;2023-03-01T13:15:26;7.23;;;5.03;;
32786;SDS011;19139;49.372;8.580;2023-03-01T13:31:26;7.77;;;5.47;;
32786;SDS011;19139;49.372;8.580;2023-03-01T13:33:58;7.23;;;4.93;;
32786;SDS011;19139;49.372;8.580;2023-03-01T13:47:13;5.43;;;4.67;;
32786;SDS011;19139;49.372;8.580;2023-03-01T13:49:58;7.50;;;5.27;;
32786;SDS011;19139;49.372;8.580;2023-03-01T13:58:31;6.83;;;4.70;;
32786;SDS011;19139;49.372;8.580;2023-03-01T14:01:06;6.20;;;4.43;;
32786;SDS011;19139;49.372;8.580;2023-03-01T14:03:40;5.50;;;5.00;;
32786;SDS011;19139;49.372;8.580;2023-03-01T14:06:09;5.47;;;4.80;;
32786;SDS011;19139;49.372;8.580;2023-03-01T14:08:46;7.60;;;4.67;;
32786;SDS011;19139;49.372;8.580;2023-03-01T14:19:25;8.73;;;6.90;;
32786;SDS011;19139;49.372;8.580;2023-03-01T14:22:00;10.93;;;8.67;;
32786;SDS011;19139;49.372;8.580;2023-03-01T14:25:00;12.20;;;9.20;;
32786;SDS011;19139;49.372;8.580;2023-03-01T14:27:37;12.80;;;10.40;;
32786;SDS011;19139;49.372;8.580;2023-03-01T14:30:12;13.87;;;10.47;;
32786;SDS011;19139;49.372;8.580;2023-03-01T14:32:58;12.27;;;10.50;;
32786;SDS011;19139;49.372;8.580;2023-03-01T14:35:27;12.33;;;11.07;;
32786;SDS011;19139;49.372;8.580;2023-03-01T14:38:03;13.40;;;10.93;;
32786;SDS011;19139;49.372;8.580;2023-03-01T14:40:35;12.53;;;11.00;;
32786;SDS011;19139;49.372;8.580;2023-03-01T14:43:10;12.33;;;10.73;;
32786;SDS011;19139;49.372;8.580;2023-03-01T14:45:47;12.47;;;10.50;;
32786;SDS011;19139;49.372;8.580;2023-03-01T14:48:16;11.53;;;10.30;;
32786;SDS011;19139;49.372;8.580;2023-03-01T14:50:44;11.43;;;10.23;;
32786;SDS011;19139;49.372;8.580;2023-03-01T14:53:18;12.33;;;10.63;;
32786;SDS011;19139;49.372;8.580;2023-03-01T14:55:48;14.10;;;10.07;;
32786;SDS011;19139;49.372;8.580;2023-03-01T14:58:19;11.80;;;10.63;;
32786;SDS011;19139;49.372;8.580;2023-03-01T15:00:56;10.97;;;9.60;;
32786;SDS011;19139;49.372;8.580;2023-03-01T15:03:37;13.53;;;10.30;;
32786;SDS011;19139;49.372;8.580;2023-03-01T15:06:14;12.97;;;10.53;;
32786;SDS011;19139;49.372;8.580;2023-03-01T15:08:52;10.47;;;9.40;;
32786;SDS011;19139;49.372;8.580;2023-03-01T15:11:29;11.83;;;10.50;;
32786;SDS011;19139;49.372;8.580;2023-03-01T15:14:05;12.00;;;10.27;;
32786;SDS011;19139;49.372;8.580;2023-03-01T15:16:54;11.83;;;10.07;;
32786;SDS011;19139;49.372;8.580;2023-03-01T15:19:26;11.27;;;10.17;;
32786;SDS011;19139;49.372;8.580;2023-03-01T15:21:54;12.60;;;9.60;;
32786;SDS011;19139;49.372;8.580;2023-03-01T15:24:27;13.83;;;10.83;;
32786;SDS011;19139;49.372;8.580;2023-03-01T15:26:56;13.50;;;10.60;;
32786;SDS011;19139;49.372;8.580;2023-03-01T15:29:32;12.77;;;10.47;;
32786;SDS011;19139;49.372;8.580;2023-03-01T15:32:21;12.93;;;10.53;;
32786;SDS011;19139;49.372;8.580;2023-03-01T15:34:55;11.43;;;10.33;;
32786;SDS011;19139;49.372;8.580;2023-03-01T15:37:37;11.40;;;10.20;;
32786;SDS011;19139;49.372;8.580;2023-03-01T15:40:33;12.87;;;10.67;;
32786;SDS011;19139;49.372;8.580;2023-03-01T15:43:14;10.77;;;9.17;;
32786;SDS011;19139;49.372;8.580;2023-03-01T15:49:05;9.90;;;7.60;;
32786;SDS011;19139;49.372;8.580;2023-03-01T15:51:54;12.50;;;7.90;;
32786;SDS011;19139;49.372;8.580;2023-03-01T15:54:26;9.47;;;7.30;;
32786;SDS011;19139;49.372;8.580;2023-03-01T15:56:58;10.17;;;7.07;;
32786;SDS011;19139;49.372;8.580;2023-03-01T15:59:25;7.87;;;6.83;;
32786;SDS011;19139;49.372;8.580;2023-03-01T16:01:56;9.33;;;7.47;;
32786;SDS011;19139;49.372;8.580;2023-03-01T16:04:23;9.20;;;6.70;;
32786;SDS011;19139;49.372;8.580;2023-03-01T16:06:54;7.93;;;6.20;;
32786;SDS011;19139;49.372;8.580;2023-03-01T16:09:26;7.30;;;6.53;;
32786;SDS011;19139;49.372;8.580;2023-03-01T16:11:58;7.07;;;6.33;;
32786;SDS011;19139;49.372;8.580;2023-03-01T16:14:24;7.00;;;5.87;;
32786;SDS011;19139;49.372;8.580;2023-03-01T16:16:56;6.50;;;5.60;;
32786;SDS011;19139;49.372;8.580;2023-03-01T16:19:27;11.03;;;5.77;;
32786;SDS011;19139;49.372;8.580;2023-03-01T16:21:54;8.93;;;6.43;;
32786;SDS011;19139;49.372;8.580;2023-03-01T16:24:25;7.17;;;5.90;;
32786;SDS011;19139;49.372;8.580;2023-03-01T16:26:57;7.20;;;5.20;;
32786;SDS011;19139;49.372;8.580;2023-03-01T16:29:24;9.27;;;5.57;;
32786;SDS011;19139;49.372;8.580;2023-03-01T16:31:55;8.27;;;5.50;;
32786;SDS011;19139;49.372;8.580;2023-03-01T16:34:27;8.63;;;6.13;;
32786;SDS011;19139;49.372;8.580;2023-03-01T16:36:53;8.00;;;5.50;;
32786;SDS011;19139;49.372;8.580;2023-03-01T16:39:25;8.13;;;5.37;;
32786;SDS011;19139;49.372;8.580;2023-03-01T16:41:57;5.97;;;5.30;;
32786;SDS011;19139;49.372;8.580;2023-03-01T16:44:31;6.90;;;5.50;;
32786;SDS011;19139;49.372;8.580;2023-03-01T16:47:03;7.13;;;5.83;;
32786;SDS011;19139;49.372;8.580;2023-03-01T16:49:34;11.03;;;5.63;;
32786;SDS011;19139;49.372;8.580;2023-03-01T16:52:06;6.80;;;5.03;;
32786;SDS011;19139;49.372;8.580;2023-03-01T16:54:37;6.63;;;4.77;;
32786;SDS011;19139;49.372;8.580;2023-03-01T16:57:04;6.13;;;4.73;;
32786;SDS011;19139;49.372;8.580;2023-03-01T16:59:36;5.27;;;4.77;;
32786;SDS011;19139;49.372;8.580;2023-03-01T17:02:11;7.23;;;5.17;;